Aviation Digital Data Service (ADDS)

Output produced by METARs form (0031 UTC 28 February 2015)
found at http://aviationweather.gov/adds/metars/
 
KCLT 272326Z 2800/2824 04007KT P6SM SCT050 SCT250 
     FM280600 04009KT P6SM BKN030 
     TEMPO 2810/2814 BKN017 OVC030 
     FM281400 05008KT P6SM BKN017